Time,TemperatureF,DewpointF,PressureIn,WindDirection,WindDirectionDegrees,WindSpeedMPH,WindSpeedGustMPH,Humidity,HourlyPrecipIn,Conditions,Clouds,dailyrainin,SoftwareType,DateUTC
2013-04-09 00:00:00,49.3,41.7,30.05,ENE,60,0.0,3.0,75,0.00,,CLR,0.00,VWS V13.01,2013-04-09 04:00:00,
2013-04-09 00:01:00,49.4,41.8,30.05,East,81,0.0,1.0,75,0.00,,CLR,0.00,VWS V13.01,2013-04-09 04:01:00,
2013-04-09 00:06:00,49.4,41.8,30.05,East,81,1.0,1.0,75,0.00,,CLR,0.00,VWS V13.01,2013-04-09 04:06:00,
2013-04-09 00:11:00,49.4,41.8,30.05,North,355,0.0,2.0,75,0.00,,CLR,0.00,VWS V13.01,2013-04-09 04:11:00,
2013-04-09 00:17:00,49.5,41.9,30.05,North,355,0.0,2.0,75,0.00,,CLR,0.00,VWS V13.01,2013-04-09 04:17:00,
2013-04-09 00:21:00,49.5,41.9,30.05,North,355,0.0,2.0,75,0.00,,CLR,0.00,VWS V13.01,2013-04-09 04:21:00,
2013-04-09 00:27:00,49.5,41.9,30.04,SSE,154,0.0,2.0,75,0.00,,CLR,0.00,VWS V13.01,2013-04-09 04:27:00,
2013-04-09 00:32:00,49.5,41.9,30.04,SSE,154,0.0,1.0,75,0.00,,CLR,0.00,VWS V13.01,2013-04-09 04:32:00,
2013-04-09 00:37:00,49.5,41.9,30.04,SSE,154,0.0,1.0,75,0.00,,CLR,0.00,VWS V13.01,2013-04-09 04:37:00,
2013-04-09 00:42:00,49.5,41.9,30.04,SSE,154,0.0,1.0,75,0.00,,CLR,0.00,VWS V13.01,2013-04-09 04:42:00,
2013-04-09 00:47:00,49.5,41.6,30.04,SSE,154,0.0,2.0,74,0.00,,CLR,0.00,VWS V13.01,2013-04-09 04:47:00,
2013-04-09 00:52:00,49.5,41.6,30.04,SSE,154,0.0,2.0,74,0.00,,CLR,0.00,VWS V13.01,2013-04-09 04:52:00,
2013-04-09 00:57:00,49.5,41.6,30.03,SSE,154,1.0,3.0,74,0.00,,CLR,0.00,VWS V13.01,2013-04-09 04:57:00,
2013-04-09 01:02:00,49.4,41.5,30.03,SSE,154,0.0,1.0,74,0.00,,CLR,0.00,VWS V13.01,2013-04-09 05:02:00,
2013-04-09 01:07:00,49.4,41.1,30.02,SSE,161,0.0,2.0,73,0.00,,CLR,0.00,VWS V13.01,2013-04-09 05:07:00,
2013-04-09 01:12:00,49.3,41.0,30.02,SSE,162,2.0,2.0,73,0.00,,CLR,0.00,VWS V13.01,2013-04-09 05:12:00,
2013-04-09 01:17:00,49.4,41.1,30.03,SSE,162,0.0,3.0,73,0.00,,CLR,0.00,VWS V13.01,2013-04-09 05:17:00,
2013-04-09 01:22:00,49.3,41.0,30.02,SSE,167,2.0,3.0,73,0.00,,CLR,0.00,VWS V13.01,2013-04-09 05:22:00,
2013-04-09 01:27:00,49.2,40.9,30.02,SSE,167,0.0,3.0,73,0.00,,CLR,0.00,VWS V13.01,2013-04-09 05:27:00,
2013-04-09 01:33:00,49.1,40.8,30.01,SSE,167,2.0,2.0,73,0.00,,CLR,0.00,VWS V13.01,2013-04-09 05:33:00,
2013-04-09 01:38:00,49.0,40.4,30.01,SSE,167,0.0,2.0,72,0.00,,CLR,0.00,VWS V13.01,2013-04-09 05:38:00,
2013-04-09 01:43:00,48.8,40.2,30.01,SE,143,1.0,3.0,72,0.00,,CLR,0.00,VWS V13.01,2013-04-09 05:43:00,
2013-04-09 01:48:00,48.8,40.2,30.01,SSE,163,2.0,3.0,72,0.00,,OVC100,0.00,VWS V13.01,2013-04-09 05:48:00,
2013-04-09 01:53:00,48.8,40.2,30.01,East,101,0.0,3.0,72,0.00,,OVC100,0.00,VWS V13.01,2013-04-09 05:53:00,
2013-04-09 01:58:00,48.8,40.2,30.00,SSW,195,1.0,3.0,72,0.00,,OVC100,0.00,VWS V13.01,2013-04-09 05:58:00,
2013-04-09 02:03:00,48.7,40.1,30.00,SSW,194,0.0,3.0,72,0.00,,OVC100,0.00,VWS V13.01,2013-04-09 06:03:00,
2013-04-09 02:08:00,48.7,40.1,29.99,SSE,153,2.0,3.0,72,0.00,,OVC100,0.00,VWS V13.01,2013-04-09 06:08:00,
2013-04-09 02:13:00,48.6,40.0,29.99,SSE,153,0.0,3.0,72,0.00,,OVC100,0.00,VWS V13.01,2013-04-09 06:13:00,
2013-04-09 02:19:00,48.4,39.8,29.99,South,178,0.0,4.0,72,0.00,,OVC100,0.00,VWS V13.01,2013-04-09 06:19:00,
2013-04-09 02:24:00,48.2,40.0,29.99,South,178,0.0,4.0,73,0.00,,OVC100,0.00,VWS V13.01,2013-04-09 06:24:00,
2013-04-09 02:29:00,48.2,40.0,29.98,South,177,0.0,4.0,73,0.00,,OVC100,0.00,VWS V13.01,2013-04-09 06:29:00,
2013-04-09 02:34:00,48.2,40.0,29.98,SSW,209,0.0,1.0,73,0.00,,OVC100,0.00,VWS V13.01,2013-04-09 06:34:00,
2013-04-09 02:39:00,48.2,40.0,29.98,SSW,194,0.0,3.0,73,0.00,,OVC100,0.00,VWS V13.01,2013-04-09 06:39:00,
2013-04-09 02:44:00,48.2,41.0,29.97,SSE,159,0.0,3.0,76,0.00,,OVC100,0.00,VWS V13.01,2013-04-09 06:44:00,
2013-04-09 02:49:00,48.2,41.0,29.97,SSW,199,1.0,3.0,76,0.00,,BKN080,0.00,VWS V13.01,2013-04-09 06:49:00,
2013-04-09 02:54:00,48.2,40.0,29.98,SSW,210,0.0,3.0,73,0.00,,BKN080,0.00,VWS V13.01,2013-04-09 06:54:00,
2013-04-09 02:59:00,48.2,40.0,29.98,SSW,201,1.0,4.0,73,0.00,,BKN080,0.00,VWS V13.01,2013-04-09 06:59:00,
2013-04-09 03:04:00,48.3,40.1,29.97,South,185,0.0,1.0,73,0.00,,BKN080,0.00,VWS V13.01,2013-04-09 07:04:00,
2013-04-09 03:09:00,48.2,41.0,29.97,South,183,0.0,1.0,76,0.00,,BKN080,0.00,VWS V13.01,2013-04-09 07:09:00,
2013-04-09 03:14:00,48.1,39.9,29.96,SSW,204,2.0,4.0,73,0.00,,BKN080,0.00,VWS V13.01,2013-04-09 07:14:00,
2013-04-09 03:20:00,48.1,40.2,29.96,SSW,204,0.0,4.0,74,0.00,,BKN080,0.00,VWS V13.01,2013-04-09 07:20:00,
2013-04-09 03:25:00,48.0,40.1,29.95,SSE,167,0.0,4.0,74,0.00,,BKN080,0.00,VWS V13.01,2013-04-09 07:25:00,
2013-04-09 03:30:00,47.9,40.0,29.95,SSE,167,0.0,4.0,74,0.00,,BKN080,0.00,VWS V13.01,2013-04-09 07:30:00,
2013-04-09 03:35:00,47.8,39.9,29.95,SSE,167,0.0,0.0,74,0.00,,BKN080,0.00,VWS V13.01,2013-04-09 07:35:00,
2013-04-09 03:40:00,47.8,39.9,29.95,SSE,167,0.0,2.0,74,0.00,,BKN080,0.00,VWS V13.01,2013-04-09 07:40:00,
2013-04-09 03:45:00,47.7,40.2,29.95,SSE,167,0.0,2.0,75,0.00,,OVC100,0.00,VWS V13.01,2013-04-09 07:45:00,
2013-04-09 03:50:00,47.6,40.1,29.95,WSW,237,0.0,3.0,75,0.00,,OVC100,0.00,VWS V13.01,2013-04-09 07:50:00,
2013-04-09 03:55:00,47.6,40.1,29.94,SSE,164,0.0,3.0,75,0.00,,OVC100,0.00,VWS V13.01,2013-04-09 07:55:00,
2013-04-09 04:00:00,47.6,40.1,29.94,SSE,164,0.0,3.0,75,0.00,,OVC100,0.00,VWS V13.01,2013-04-09 08:00:00,
2013-04-09 04:05:00,47.4,39.9,29.93,SSE,164,0.0,0.0,75,0.00,,OVC100,0.00,VWS V13.01,2013-04-09 08:05:00,
2013-04-09 04:10:00,47.3,39.8,29.93,SSE,164,0.0,0.0,75,0.00,,OVC100,0.00,VWS V13.01,2013-04-09 08:10:00,
2013-04-09 04:15:00,47.1,39.6,29.92,SSE,164,1.0,1.0,75,0.00,,OVC100,0.00,VWS V13.01,2013-04-09 08:15:00,
2013-04-09 04:20:00,47.0,39.8,29.92,SSE,164,0.0,1.0,76,0.00,,OVC100,0.00,VWS V13.01,2013-04-09 08:20:00,
2013-04-09 04:26:00,46.9,39.7,29.91,SSE,164,0.0,1.0,76,0.00,,OVC100,0.00,VWS V13.01,2013-04-09 08:26:00,
2013-04-09 04:31:00,46.8,39.7,29.92,SSE,164,0.0,1.0,76,0.00,,OVC100,0.00,VWS V13.01,2013-04-09 08:31:00,
2013-04-09 04:36:00,46.6,39.8,29.91,SSE,164,0.0,1.0,77,0.00,,OVC100,0.00,VWS V13.01,2013-04-09 08:36:00,
2013-04-09 04:41:00,46.4,39.6,29.91,SSE,164,0.0,1.0,77,0.00,,OVC100,0.00,VWS V13.01,2013-04-09 08:41:00,
2013-04-09 04:46:00,46.3,39.8,29.91,SSE,164,0.0,1.0,78,0.00,,BKN110,0.00,VWS V13.01,2013-04-09 08:46:00,
2013-04-09 04:51:00,46.4,39.9,29.91,SSE,164,0.0,1.0,78,0.00,,BKN110,0.00,VWS V13.01,2013-04-09 08:51:00,
2013-04-09 04:56:00,46.4,40.2,29.91,SSE,164,0.0,1.0,79,0.00,,BKN110,0.00,VWS V13.01,2013-04-09 08:56:00,
2013-04-09 05:01:00,46.5,40.3,29.91,SSW,206,1.0,2.0,79,0.00,,BKN110,0.00,VWS V13.01,2013-04-09 09:01:00,
2013-04-09 05:06:00,46.8,40.6,29.93,WSW,237,0.0,2.0,79,0.00,,BKN110,0.00,VWS V13.01,2013-04-09 09:06:00,
2013-04-09 05:11:00,47.1,40.9,29.93,WSW,237,0.0,3.0,79,0.00,,BKN110,0.00,VWS V13.01,2013-04-09 09:11:00,
2013-04-09 05:16:00,47.2,41.0,29.94,NW,313,2.0,3.0,79,0.00,,BKN110,0.00,VWS V13.01,2013-04-09 09:16:00,
2013-04-09 05:22:00,47.4,41.9,29.94,NW,314,0.0,6.0,81,0.00,,BKN110,0.00,VWS V13.01,2013-04-09 09:22:00,
2013-04-09 05:27:00,47.3,42.4,29.94,NW,314,0.0,6.0,83,0.00,,BKN110,0.00,VWS V13.01,2013-04-09 09:27:00,
2013-04-09 05:32:00,47.1,42.5,29.95,NNW,338,0.0,4.0,84,0.00,,BKN110,0.00,VWS V13.01,2013-04-09 09:32:00,
2013-04-09 05:37:00,46.9,42.3,29.94,NNW,329,0.0,4.0,84,0.00,,BKN110,0.01,VWS V13.01,2013-04-09 09:37:00,
2013-04-09 05:42:00,46.7,43.3,29.92,NNW,329,0.0,4.0,88,0.03,,BKN110,0.03,VWS V13.01,2013-04-09 09:42:00,
2013-04-09 05:47:00,46.4,43.3,29.91,NNW,329,0.0,4.0,89,0.04,,BKN110,0.04,VWS V13.01,2013-04-09 09:47:00,
2013-04-09 05:52:00,46.2,43.4,29.91,NNW,329,0.0,4.0,90,0.04,,BKN110,0.04,VWS V13.01,2013-04-09 09:52:00,
2013-04-09 05:57:00,45.9,43.1,29.90,NNW,329,0.0,4.0,90,0.04,,BKN110,0.04,VWS V13.01,2013-04-09 09:57:00,
2013-04-09 06:02:00,45.6,43.1,29.89,NNW,329,0.0,0.0,91,0.04,,-RA,0.04,VWS V13.01,2013-04-09 10:02:00,
2013-04-09 06:07:00,45.5,43.3,29.90,NNW,329,0.0,0.0,92,0.04,,-RA,0.04,VWS V13.01,2013-04-09 10:07:00,
2013-04-09 06:12:00,45.4,43.5,29.90,NNW,329,0.0,0.0,93,0.04,,-RA,0.04,VWS V13.01,2013-04-09 10:12:00,
2013-04-09 06:18:00,45.4,43.5,29.90,NNW,329,0.0,0.0,93,0.04,,-RA,0.04,VWS V13.01,2013-04-09 10:18:00,
2013-04-09 06:23:00,45.4,43.5,29.90,NNW,329,0.0,0.0,93,0.04,,-RA,0.04,VWS V13.01,2013-04-09 10:23:00,
2013-04-09 06:28:00,45.3,43.4,29.90,NNW,329,0.0,0.0,93,0.04,,-RA,0.04,VWS V13.01,2013-04-09 10:28:00,
2013-04-09 06:33:00,45.3,43.7,29.90,NNW,329,0.0,0.0,94,0.04,,-RA,0.04,VWS V13.01,2013-04-09 10:33:00,
2013-04-09 06:38:00,45.2,43.6,29.90,NNW,329,0.0,0.0,94,0.04,,-RA,0.04,VWS V13.01,2013-04-09 10:38:00,
2013-04-09 06:43:00,45.2,43.6,29.90,NNW,329,0.0,0.0,94,0.04,,-RA,0.04,VWS V13.01,2013-04-09 10:43:00,
2013-04-09 06:48:00,45.3,44.0,29.89,NNW,329,0.0,0.0,95,0.04,,CLR,0.04,VWS V13.01,2013-04-09 10:48:00,
2013-04-09 06:53:00,45.3,44.0,29.89,NNW,329,0.0,0.0,95,0.04,,CLR,0.04,VWS V13.01,2013-04-09 10:53:00,
2013-04-09 06:58:00,45.3,44.0,29.89,NNW,329,0.0,0.0,95,0.04,,CLR,0.04,VWS V13.01,2013-04-09 10:58:00,
2013-04-09 07:03:00,45.4,44.0,29.89,NNW,329,0.0,0.0,95,0.00,,OVC100,0.04,VWS V13.01,2013-04-09 11:03:00,
2013-04-09 07:08:00,45.5,44.2,29.89,NNW,329,0.0,0.0,95,0.00,,OVC100,0.04,VWS V13.01,2013-04-09 11:08:00,
2013-04-09 07:13:00,45.6,44.2,29.89,NNW,329,0.0,0.0,95,0.00,,OVC100,0.04,VWS V13.01,2013-04-09 11:13:00,
2013-04-09 07:18:00,45.7,44.3,29.89,NNW,329,0.0,0.0,95,0.00,,OVC100,0.04,VWS V13.01,2013-04-09 11:18:00,
2013-04-09 07:24:00,45.8,44.5,29.89,NNW,329,0.0,0.0,95,0.00,,OVC100,0.04,VWS V13.01,2013-04-09 11:24:00,
2013-04-09 07:29:00,45.9,44.8,29.88,NNW,329,0.0,0.0,96,0.00,,OVC100,0.04,VWS V13.01,2013-04-09 11:29:00,
2013-04-09 07:34:00,46.1,45.0,29.88,NNW,329,0.0,0.0,96,0.00,,OVC100,0.04,VWS V13.01,2013-04-09 11:34:00,
2013-04-09 07:39:00,46.3,45.2,29.89,NNW,329,0.0,0.0,96,0.00,,OVC100,0.04,VWS V13.01,2013-04-09 11:39:00,
2013-04-09 07:44:00,46.4,45.0,29.88,NNW,329,0.0,0.0,95,0.00,,OVC100,0.04,VWS V13.01,2013-04-09 11:44:00,
2013-04-09 07:50:00,46.6,45.5,29.88,NNW,329,0.0,0.0,96,0.00,,OVC012,0.04,VWS V13.01,2013-04-09 11:50:00,
2013-04-09 07:55:00,46.8,45.5,29.87,NNW,329,0.0,0.0,95,0.00,,OVC012,0.04,VWS V13.01,2013-04-09 11:55:00,
2013-04-09 08:00:00,46.9,45.5,29.87,NNW,329,0.0,1.0,95,0.00,,OVC012,0.04,VWS V13.01,2013-04-09 12:00:00,
2013-04-09 08:05:00,47.0,45.7,29.87,NNW,329,0.0,0.0,95,0.00,,OVC012,0.04,VWS V13.01,2013-04-09 12:05:00,
2013-04-09 08:10:00,47.2,45.8,29.87,NNW,329,0.0,0.0,95,0.00,,OVC012,0.04,VWS V13.01,2013-04-09 12:10:00,
2013-04-09 08:15:00,47.3,45.9,29.87,NNW,329,0.0,2.0,95,0.00,,OVC012,0.04,VWS V13.01,2013-04-09 12:15:00,
2013-04-09 08:20:00,47.4,46.0,29.87,NNW,329,0.0,2.0,95,0.00,,OVC012,0.04,VWS V13.01,2013-04-09 12:20:00,
2013-04-09 08:25:00,47.6,46.2,29.87,NNW,329,0.0,2.0,95,0.00,,OVC012,0.04,VWS V13.01,2013-04-09 12:25:00,
2013-04-09 08:30:00,47.8,46.4,29.87,NNW,329,0.0,2.0,95,0.00,,OVC012,0.04,VWS V13.01,2013-04-09 12:30:00,
2013-04-09 08:35:00,47.8,46.4,29.87,NNW,329,1.0,2.0,95,0.00,,OVC012,0.04,VWS V13.01,2013-04-09 12:35:00,
2013-04-09 08:41:00,48.0,46.9,29.86,SW,235,0.0,3.0,96,0.00,,OVC012,0.04,VWS V13.01,2013-04-09 12:41:00,
2013-04-09 08:46:00,48.1,47.0,29.86,WSW,251,0.0,4.0,96,0.00,,,0.04,VWS V13.01,2013-04-09 12:46:00,
2013-04-09 08:51:00,48.3,47.2,29.86,WSW,251,0.0,4.0,96,0.00,,,0.04,VWS V13.01,2013-04-09 12:51:00,
2013-04-09 08:57:00,48.4,47.3,29.86,WSW,251,0.0,4.0,96,0.00,,,0.04,VWS V13.01,2013-04-09 12:57:00,
2013-04-09 09:02:00,48.6,47.5,29.86,WSW,244,4.0,4.0,96,0.00,,,0.04,VWS V13.01,2013-04-09 13:02:00,
2013-04-09 09:07:00,48.7,47.6,29.86,SW,232,0.0,4.0,96,0.00,,,0.04,VWS V13.01,2013-04-09 13:07:00,
2013-04-09 09:12:00,48.8,47.7,29.85,WSW,249,0.0,4.0,96,0.00,,,0.04,VWS V13.01,2013-04-09 13:12:00,
2013-04-09 09:17:00,48.9,47.8,29.85,WSW,249,0.0,4.0,96,0.00,,,0.04,VWS V13.01,2013-04-09 13:17:00,
2013-04-09 09:22:00,49.0,47.9,29.85,WNW,302,0.0,4.0,96,0.00,,,0.04,VWS V13.01,2013-04-09 13:22:00,
2013-04-09 09:27:00,49.1,48.0,29.85,WSW,241,1.0,4.0,96,0.00,,,0.04,VWS V13.01,2013-04-09 13:27:00,
2013-04-09 09:32:00,49.3,48.2,29.85,WSW,241,0.0,0.0,96,0.00,,,0.04,VWS V13.01,2013-04-09 13:32:00,
2013-04-09 09:37:00,49.5,48.4,29.84,WNW,302,1.0,3.0,96,0.00,,,0.04,VWS V13.01,2013-04-09 13:37:00,
2013-04-09 09:42:00,49.8,48.7,29.84,WNW,302,0.0,3.0,96,0.00,,,0.04,VWS V13.01,2013-04-09 13:42:00,
2013-04-09 09:47:00,50.1,49.0,29.84,NW,321,0.0,4.0,96,0.00,,,0.04,VWS V13.01,2013-04-09 13:47:00,
2013-04-09 09:52:00,50.3,48.9,29.84,NW,319,2.0,4.0,95,0.00,,,0.04,VWS V13.01,2013-04-09 13:52:00,
2013-04-09 09:57:00,50.6,49.2,29.84,NW,319,0.0,4.0,95,0.00,,,0.04,VWS V13.01,2013-04-09 13:57:00,
2013-04-09 10:02:00,50.9,49.5,29.84,NW,319,0.0,1.0,95,0.00,,,0.04,VWS V13.01,2013-04-09 14:02:00,
2013-04-09 10:08:00,51.3,49.6,29.85,NW,319,0.0,1.0,94,0.00,,,0.04,VWS V13.01,2013-04-09 14:08:00,
2013-04-09 10:13:00,51.7,50.0,29.85,NW,317,0.0,2.0,94,0.00,,,0.04,VWS V13.01,2013-04-09 14:13:00,
2013-04-09 10:18:00,52.0,50.0,29.85,NW,317,1.0,2.0,93,0.00,,,0.04,VWS V13.01,2013-04-09 14:18:00,
2013-04-09 10:23:00,52.3,50.0,29.85,WNW,299,0.0,6.0,92,0.00,,,0.04,VWS V13.01,2013-04-09 14:23:00,
2013-04-09 10:28:00,52.4,49.8,29.86,NW,322,4.0,6.0,91,0.00,,,0.04,VWS V13.01,2013-04-09 14:28:00,
2013-04-09 10:33:00,52.6,50.0,29.86,NW,309,2.0,3.0,91,0.00,,,0.04,VWS V13.01,2013-04-09 14:33:00,
2013-04-09 10:38:00,53.4,50.8,29.86,North,355,1.0,4.0,91,0.00,,,0.04,VWS V13.01,2013-04-09 14:38:00,
2013-04-09 10:43:00,54.4,50.9,29.86,NW,304,0.0,6.0,88,0.00,,,0.04,VWS V13.01,2013-04-09 14:43:00,
2013-04-09 10:48:00,55.4,51.9,29.86,NW,317,2.0,6.0,88,0.00,,,0.04,VWS V13.01,2013-04-09 14:48:00,
2013-04-09 10:53:00,56.4,52.6,29.86,NW,321,4.0,6.0,87,0.00,,,0.04,VWS V13.01,2013-04-09 14:53:00,
2013-04-09 10:58:00,57.3,52.2,29.85,NNW,338,1.0,6.0,83,0.00,,,0.04,VWS V13.01,2013-04-09 14:58:00,
2013-04-09 11:04:00,58.3,53.2,29.85,West,275,2.0,3.0,83,0.00,,,0.04,VWS V13.01,2013-04-09 15:04:00,
2013-04-09 11:09:00,59.5,53.7,29.85,WNW,298,0.0,4.0,81,0.00,,,0.04,VWS V13.01,2013-04-09 15:09:00,
2013-04-09 11:14:00,60.7,53.8,29.85,West,277,1.0,7.0,78,0.00,,,0.04,VWS V13.01,2013-04-09 15:14:00,
2013-04-09 11:19:00,61.6,54.0,29.85,NW,309,3.0,7.0,76,0.00,,,0.04,VWS V13.01,2013-04-09 15:19:00,
2013-04-09 11:24:00,62.2,54.5,29.85,NNW,329,0.0,7.0,76,0.00,,,0.04,VWS V13.01,2013-04-09 15:24:00,
2013-04-09 11:29:00,63.1,53.6,29.85,West,277,2.0,7.0,71,0.00,,,0.04,VWS V13.01,2013-04-09 15:29:00,
2013-04-09 11:34:00,63.7,54.5,29.84,WNW,288,0.0,2.0,72,0.00,,,0.04,VWS V13.01,2013-04-09 15:34:00,
2013-04-09 11:39:00,64.3,52.7,29.85,NE,36,0.0,7.0,66,0.00,,,0.04,VWS V13.01,2013-04-09 15:39:00,
2013-04-09 11:44:00,64.5,53.3,29.85,NW,322,2.0,7.0,67,0.00,,,0.04,VWS V13.01,2013-04-09 15:44:00,
2013-04-09 11:50:00,64.9,53.3,29.85,West,281,1.0,7.0,66,0.00,,,0.04,VWS V13.01,2013-04-09 15:50:00,
2013-04-09 11:55:00,65.3,53.7,29.84,WNW,292,0.0,7.0,66,0.00,,,0.04,VWS V13.01,2013-04-09 15:55:00,
2013-04-09 12:00:00,66.2,52.4,29.84,NW,315,0.0,9.0,61,0.00,,,0.04,VWS V13.01,2013-04-09 16:00:00,
2013-04-09 12:05:00,67.4,53.5,29.84,WNW,288,3.0,5.0,61,0.00,,,0.04,VWS V13.01,2013-04-09 16:05:00,
2013-04-09 12:10:00,68.3,51.5,29.84,WNW,284,5.0,11.0,55,0.00,,,0.04,VWS V13.01,2013-04-09 16:10:00,
2013-04-09 12:15:00,68.6,50.8,29.84,NW,304,1.0,11.0,53,0.00,,,0.04,VWS V13.01,2013-04-09 16:15:00,
2013-04-09 12:20:00,68.8,49.4,29.84,West,279,2.0,13.0,50,0.00,,,0.04,VWS V13.01,2013-04-09 16:20:00,
2013-04-09 12:25:00,69.4,51.5,29.83,SSW,211,1.0,13.0,53,0.00,,,0.04,VWS V13.01,2013-04-09 16:25:00,
2013-04-09 12:30:00,69.8,49.2,29.83,WNW,292,2.0,14.0,48,0.00,,,0.04,VWS V13.01,2013-04-09 16:30:00,
2013-04-09 12:35:00,69.7,48.6,29.84,WNW,288,5.0,20.0,47,0.00,,,0.04,VWS V13.01,2013-04-09 16:35:00,
2013-04-09 12:40:00,70.0,48.9,29.83,East,83,0.0,21.0,47,0.00,,,0.04,VWS V13.01,2013-04-09 16:40:00,
2013-04-09 12:46:00,70.7,48.9,29.84,WNW,299,4.0,21.0,46,0.00,,BKN049,0.04,VWS V13.01,2013-04-09 16:46:00,
2013-04-09 12:51:00,71.2,49.4,29.83,North,350,2.0,21.0,46,0.00,,BKN049,0.04,VWS V13.01,2013-04-09 16:51:00,
2013-04-09 12:56:00,71.2,48.8,29.83,West,273,4.0,21.0,45,0.00,,BKN049,0.04,VWS V13.01,2013-04-09 16:56:00,
2013-04-09 13:01:00,71.2,48.2,29.84,West,269,6.0,21.0,44,0.00,,BKN049,0.04,VWS V13.01,2013-04-09 17:01:00,
2013-04-09 13:06:00,71.4,49.0,29.84,WNW,303,2.0,10.0,45,0.00,,BKN049,0.04,VWS V13.01,2013-04-09 17:06:00,
2013-04-09 13:11:00,71.2,47.6,29.84,WNW,292,0.0,11.0,43,0.00,,BKN049,0.04,VWS V13.01,2013-04-09 17:11:00,
2013-04-09 13:16:00,71.0,49.2,29.84,WNW,287,4.0,14.0,46,0.00,,BKN049,0.04,VWS V13.01,2013-04-09 17:16:00,
2013-04-09 13:22:00,71.4,47.8,29.83,NW,313,1.0,14.0,43,0.00,,BKN049,0.04,VWS V13.01,2013-04-09 17:22:00,
2013-04-09 13:27:00,72.2,47.9,29.83,West,281,2.0,14.0,42,0.00,,BKN049,0.04,VWS V13.01,2013-04-09 17:27:00,
2013-04-09 13:32:00,72.9,49.1,29.83,WSW,240,0.0,3.0,43,0.00,,BKN049,0.04,VWS V13.01,2013-04-09 17:32:00,
2013-04-09 13:37:00,72.6,47.6,29.84,WNW,286,1.0,15.0,41,0.00,,BKN049,0.04,VWS V13.01,2013-04-09 17:37:00,
2013-04-09 13:42:00,72.2,47.2,29.84,NE,37,6.0,15.0,41,0.00,,BKN049,0.04,VWS V13.01,2013-04-09 17:42:00,
2013-04-09 13:47:00,72.5,48.1,29.85,NW,309,6.0,15.0,42,0.00,,SCT050,0.04,VWS V13.01,2013-04-09 17:47:00,
2013-04-09 13:53:00,72.4,48.7,29.85,WNW,286,1.0,15.0,43,0.00,,SCT050,0.04,VWS V13.01,2013-04-09 17:53:00,
2013-04-09 13:58:00,72.8,48.4,29.84,WNW,283,1.0,15.0,42,0.00,,SCT050,0.04,VWS V13.01,2013-04-09 17:58:00,
2013-04-09 14:03:00,73.4,47.6,29.84,NW,317,3.0,8.0,40,0.00,,SCT050,0.04,VWS V13.01,2013-04-09 18:03:00,
2013-04-09 14:08:00,73.1,48.7,29.84,WNW,296,7.0,11.0,42,0.00,,SCT050,0.04,VWS V13.01,2013-04-09 18:08:00,
2013-04-09 14:13:00,73.0,48.6,29.85,NW,309,2.0,11.0,42,0.00,,SCT050,0.04,VWS V13.01,2013-04-09 18:13:00,
2013-04-09 14:18:00,73.1,48.0,29.85,WNW,300,0.0,11.0,41,0.00,,SCT050,0.04,VWS V13.01,2013-04-09 18:18:00,
2013-04-09 14:23:00,73.1,48.0,29.85,WNW,300,2.0,11.0,41,0.00,,SCT050,0.04,VWS V13.01,2013-04-09 18:23:00,
2013-04-09 14:28:00,73.2,47.5,29.85,West,270,6.0,14.0,40,0.00,,SCT050,0.04,VWS V13.01,2013-04-09 18:28:00,
2013-04-09 14:33:00,73.5,47.7,29.86,NNE,20,4.0,6.0,40,0.00,,SCT050,0.04,VWS V13.01,2013-04-09 18:33:00,
2013-04-09 14:38:00,73.6,49.1,29.86,NNE,24,1.0,10.0,42,0.00,,SCT050,0.04,VWS V13.01,2013-04-09 18:38:00,
2013-04-09 14:43:00,73.7,47.2,29.86,WNW,289,1.0,10.0,39,0.00,,SCT050,0.04,VWS V13.01,2013-04-09 18:43:00,
2013-04-09 14:48:00,73.6,47.8,29.86,NW,323,6.0,10.0,40,0.00,,CLR,0.04,VWS V13.01,2013-04-09 18:48:00,
2013-04-09 14:53:00,72.8,46.4,29.87,WNW,296,1.0,14.0,39,0.00,,CLR,0.04,VWS V13.01,2013-04-09 18:53:00,
2013-04-09 14:58:00,72.6,46.2,29.87,West,271,4.0,14.0,39,0.00,,CLR,0.04,VWS V13.01,2013-04-09 18:58:00,
2013-04-09 15:03:00,72.3,46.0,29.87,WNW,289,1.0,11.0,39,0.00,,CLR,0.04,VWS V13.01,2013-04-09 19:03:00,
2013-04-09 15:08:00,72.1,46.5,29.87,North,5,1.0,11.0,40,0.00,,CLR,0.04,VWS V13.01,2013-04-09 19:08:00,
2013-04-09 15:13:00,71.9,46.3,29.87,NW,304,1.0,11.0,40,0.00,,CLR,0.04,VWS V13.01,2013-04-09 19:13:00,
2013-04-09 15:19:00,71.8,46.9,29.86,West,279,3.0,13.0,41,0.00,,CLR,0.04,VWS V13.01,2013-04-09 19:19:00,
2013-04-09 15:24:00,71.6,46.7,29.86,WNW,282,3.0,13.0,41,0.00,,CLR,0.04,VWS V13.01,2013-04-09 19:24:00,
2013-04-09 15:30:00,71.8,48.1,29.86,West,272,5.0,13.0,43,0.00,,CLR,0.04,VWS V13.01,2013-04-09 19:30:00,
2013-04-09 15:35:00,71.8,46.2,29.86,WNW,292,2.0,7.0,40,0.00,,CLR,0.04,VWS V13.01,2013-04-09 19:35:00,
2013-04-09 15:40:00,72.0,46.4,29.86,West,275,2.0,7.0,40,0.00,,CLR,0.04,VWS V13.01,2013-04-09 19:40:00,
2013-04-09 15:45:00,72.1,46.5,29.87,West,281,0.0,7.0,40,0.00,,SCT050,0.04,VWS V13.01,2013-04-09 19:45:00,
2013-04-09 15:50:00,72.3,46.7,29.86,WNW,288,1.0,7.0,40,0.00,,SCT050,0.04,VWS V13.01,2013-04-09 19:50:00,
2013-04-09 15:55:00,72.1,46.5,29.86,WNW,286,0.0,7.0,40,0.00,,SCT050,0.04,VWS V13.01,2013-04-09 19:55:00,
2013-04-09 16:00:00,71.9,44.9,29.86,West,281,2.0,12.0,38,0.00,,SCT050,0.04,VWS V13.01,2013-04-09 20:00:00,
2013-04-09 16:05:00,72.0,47.0,29.86,NNW,331,5.0,5.0,41,0.00,,SCT050,0.04,VWS V13.01,2013-04-09 20:05:00,
2013-04-09 16:10:00,71.4,45.2,29.87,NW,304,1.0,12.0,39,0.00,,SCT050,0.04,VWS V13.01,2013-04-09 20:10:00,
2013-04-09 16:15:00,71.2,46.3,29.87,NW,315,1.0,12.0,41,0.00,,SCT050,0.04,VWS V13.01,2013-04-09 20:15:00,
2013-04-09 16:20:00,71.4,45.8,29.87,WNW,291,0.0,12.0,40,0.00,,SCT050,0.04,VWS V13.01,2013-04-09 20:20:00,
2013-04-09 16:25:00,71.6,46.7,29.88,West,273,0.0,12.0,41,0.00,,SCT050,0.04,VWS V13.01,2013-04-09 20:25:00,
2013-04-09 16:30:00,71.3,45.8,29.88,West,267,0.0,12.0,40,0.00,,SCT050,0.04,VWS V13.01,2013-04-09 20:30:00,
2013-04-09 16:35:00,71.1,44.2,29.87,WNW,303,0.0,5.0,38,0.00,,SCT050,0.04,VWS V13.01,2013-04-09 20:35:00,
2013-04-09 16:41:00,71.0,46.8,29.87,NW,309,1.0,5.0,42,0.00,,SCT050,0.04,VWS V13.01,2013-04-09 20:41:00,
2013-04-09 16:46:00,70.5,45.0,29.87,SSW,199,1.0,10.0,40,0.00,,CLR,0.04,VWS V13.01,2013-04-09 20:46:00,
2013-04-09 16:51:00,70.3,45.5,29.87,NW,315,7.0,10.0,41,0.00,,CLR,0.04,VWS V13.01,2013-04-09 20:51:00,
2013-04-09 16:56:00,69.8,45.1,29.87,WNW,283,1.0,10.0,41,0.00,,CLR,0.04,VWS V13.01,2013-04-09 20:56:00,
2013-04-09 17:01:00,69.5,44.8,29.87,WNW,290,3.0,10.0,41,0.00,,CLR,0.04,VWS V13.01,2013-04-09 21:01:00,
2013-04-09 17:06:00,69.1,45.7,29.87,WNW,290,3.0,5.0,43,0.00,,CLR,0.04,VWS V13.01,2013-04-09 21:06:00,
2013-04-09 17:12:00,68.6,45.2,29.88,NW,304,2.0,5.0,43,0.00,,CLR,0.04,VWS V13.01,2013-04-09 21:12:00,
2013-04-09 17:17:00,68.3,45.0,29.89,West,267,0.0,6.0,43,0.00,,CLR,0.04,VWS V13.01,2013-04-09 21:17:00,
2013-04-09 17:22:00,67.9,44.0,29.89,West,266,0.0,6.0,42,0.00,,CLR,0.04,VWS V13.01,2013-04-09 21:22:00,
2013-04-09 17:27:00,67.6,44.9,29.90,West,274,4.0,6.0,44,0.00,,CLR,0.04,VWS V13.01,2013-04-09 21:27:00,
2013-04-09 17:32:00,67.4,44.8,29.90,WSW,243,0.0,4.0,44,0.00,,CLR,0.04,VWS V13.01,2013-04-09 21:32:00,
2013-04-09 17:37:00,67.3,44.7,29.90,WNW,290,0.0,4.0,44,0.00,,CLR,0.04,VWS V13.01,2013-04-09 21:37:00,
2013-04-09 17:42:00,67.2,45.7,29.91,WNW,302,0.0,4.0,46,0.00,,CLR,0.04,VWS V13.01,2013-04-09 21:42:00,
2013-04-09 17:48:00,67.2,44.6,29.91,West,281,0.0,5.0,44,0.00,,CLR,0.04,VWS V13.01,2013-04-09 21:48:00,
2013-04-09 17:53:00,67.0,44.4,29.91,WSW,249,0.0,5.0,44,0.00,,CLR,0.04,VWS V13.01,2013-04-09 21:53:00,
2013-04-09 17:58:00,66.8,44.8,29.92,West,275,0.0,5.0,45,0.00,,CLR,0.04,VWS V13.01,2013-04-09 21:58:00,
2013-04-09 18:03:00,66.5,43.9,29.92,West,279,0.0,8.0,44,0.00,,CLR,0.04,VWS V13.01,2013-04-09 22:03:00,
2013-04-09 18:08:00,66.2,43.7,29.92,WSW,245,1.0,8.0,44,0.00,,CLR,0.04,VWS V13.01,2013-04-09 22:08:00,
2013-04-09 18:13:00,65.9,44.0,29.92,ENE,57,2.0,8.0,45,0.00,,CLR,0.04,VWS V13.01,2013-04-09 22:13:00,
2013-04-09 18:18:00,65.6,44.3,29.92,West,278,0.0,8.0,46,0.00,,CLR,0.04,VWS V13.01,2013-04-09 22:18:00,
2013-04-09 18:23:00,65.3,44.0,29.92,WSW,252,0.0,8.0,46,0.00,,CLR,0.04,VWS V13.01,2013-04-09 22:23:00,
2013-04-09 18:28:00,64.9,43.7,29.92,WSW,244,0.0,10.0,46,0.00,,CLR,0.04,VWS V13.01,2013-04-09 22:28:00,
2013-04-09 18:33:00,64.5,43.8,29.92,WSW,244,0.0,1.0,47,0.00,,CLR,0.04,VWS V13.01,2013-04-09 22:33:00,
2013-04-09 18:38:00,64.1,44.0,29.92,SW,227,0.0,4.0,48,0.00,,CLR,0.04,VWS V13.01,2013-04-09 22:38:00,
2013-04-09 18:43:00,63.8,43.8,29.92,WSW,251,0.0,5.0,48,0.00,,CLR,0.04,VWS V13.01,2013-04-09 22:43:00,
2013-04-09 18:48:00,63.6,44.1,29.92,WSW,251,0.0,5.0,49,0.00,,CLR,0.04,VWS V13.01,2013-04-09 22:48:00,
2013-04-09 18:53:00,63.3,43.8,29.92,WSW,251,0.0,5.0,49,0.00,,CLR,0.04,VWS V13.01,2013-04-09 22:53:00,
2013-04-09 18:59:00,63.1,43.7,29.91,WSW,251,0.0,5.0,49,0.00,,CLR,0.04,VWS V13.01,2013-04-09 22:59:00,
2013-04-09 19:04:00,62.7,43.8,29.92,WSW,251,0.0,0.0,50,0.00,,CLR,0.04,VWS V13.01,2013-04-09 23:04:00,
2013-04-09 19:09:00,62.4,44.0,29.92,WSW,251,0.0,1.0,51,0.00,,CLR,0.04,VWS V13.01,2013-04-09 23:09:00,
2013-04-09 19:14:00,62.0,43.7,29.92,WSW,251,0.0,1.0,51,0.00,,CLR,0.04,VWS V13.01,2013-04-09 23:14:00,
2013-04-09 19:19:00,61.7,43.9,29.93,WSW,251,0.0,1.0,52,0.00,,CLR,0.04,VWS V13.01,2013-04-09 23:19:00,
2013-04-09 19:24:00,61.3,43.5,29.93,WSW,251,0.0,1.0,52,0.00,,CLR,0.04,VWS V13.01,2013-04-09 23:24:00,
2013-04-09 19:29:00,61.0,43.8,29.93,WSW,251,0.0,1.0,53,0.00,,CLR,0.04,VWS V13.01,2013-04-09 23:29:00,
2013-04-09 19:34:00,60.6,43.4,29.93,WSW,251,0.0,0.0,53,0.00,,CLR,0.04,VWS V13.01,2013-04-09 23:34:00,
2013-04-09 19:39:00,60.3,43.1,29.93,WSW,251,0.0,0.0,53,0.00,,CLR,0.04,VWS V13.01,2013-04-09 23:39:00,
2013-04-09 19:44:00,60.0,43.3,29.93,WSW,251,0.0,0.0,54,0.00,,CLR,0.04,VWS V13.01,2013-04-09 23:44:00,
2013-04-09 19:49:00,59.7,43.0,29.94,WSW,251,0.0,0.0,54,0.00,,BKN250,0.04,VWS V13.01,2013-04-09 23:49:00,
2013-04-09 19:54:00,59.4,42.8,29.94,WSW,251,0.0,0.0,54,0.00,,BKN250,0.04,VWS V13.01,2013-04-09 23:54:00,
2013-04-09 19:59:00,59.1,43.0,29.94,WSW,251,0.0,0.0,55,0.00,,BKN250,0.04,VWS V13.01,2013-04-09 23:59:00,
2013-04-09 20:04:00,58.8,42.7,29.94,WSW,251,0.0,0.0,55,0.00,,BKN250,0.04,VWS V13.01,2013-04-10 00:04:00,
2013-04-09 20:09:00,58.5,42.9,29.94,WSW,251,0.0,0.0,56,0.00,,BKN250,0.04,VWS V13.01,2013-04-10 00:09:00,
2013-04-09 20:14:00,58.2,42.6,29.94,WSW,251,0.0,0.0,56,0.00,,BKN250,0.04,VWS V13.01,2013-04-10 00:14:00,
2013-04-09 20:19:00,58.0,42.9,29.95,WSW,251,0.0,0.0,57,0.00,,CLR,0.04,VWS V13.01,2013-04-10 00:19:00,
2013-04-09 20:24:00,57.7,42.6,29.95,WSW,251,0.0,0.0,57,0.00,,CLR,0.04,VWS V13.01,2013-04-10 00:24:00,
2013-04-09 20:29:00,57.4,43.2,29.95,WSW,251,0.0,0.0,59,0.00,,CLR,0.04,VWS V13.01,2013-04-10 00:29:00,
2013-04-09 20:34:00,57.2,44.3,29.96,WSW,251,0.0,1.0,62,0.00,,CLR,0.04,VWS V13.01,2013-04-10 00:34:00,
2013-04-09 20:40:00,56.8,43.5,29.97,WSW,251,0.0,1.0,61,0.00,,CLR,0.04,VWS V13.01,2013-04-10 00:40:00,
2013-04-09 20:45:00,56.4,44.0,29.97,WSW,251,0.0,1.0,63,0.00,,CLR,0.04,VWS V13.01,2013-04-10 00:45:00,
2013-04-09 20:50:00,56.0,43.2,29.98,WSW,251,0.0,1.0,62,0.00,,CLR,0.04,VWS V13.01,2013-04-10 00:50:00,
2013-04-09 20:55:00,55.4,43.8,29.98,WSW,251,0.0,2.0,65,0.00,,CLR,0.04,VWS V13.01,2013-04-10 00:55:00,
2013-04-09 21:00:00,54.6,43.9,29.99,WSW,251,0.0,2.0,67,0.00,,CLR,0.04,VWS V13.01,2013-04-10 01:00:00,
2013-04-09 21:05:00,53.9,44.0,29.99,WSW,251,0.0,2.0,69,0.00,,CLR,0.04,VWS V13.01,2013-04-10 01:05:00,
2013-04-09 21:10:00,53.0,43.5,29.99,WSW,251,2.0,2.0,70,0.00,,CLR,0.04,VWS V13.01,2013-04-10 01:10:00,
2013-04-09 21:15:00,52.2,43.5,29.99,SSE,150,2.0,3.0,72,0.00,,CLR,0.04,VWS V13.01,2013-04-10 01:15:00,
2013-04-09 21:20:00,51.6,43.2,30.00,SSE,150,0.0,3.0,73,0.00,,CLR,0.04,VWS V13.01,2013-04-10 01:20:00,
2013-04-09 21:25:00,51.0,43.4,30.00,SSE,150,0.0,3.0,75,0.00,,CLR,0.04,VWS V13.01,2013-04-10 01:25:00,
2013-04-09 21:30:00,50.5,43.2,29.99,SSE,150,0.0,3.0,76,0.00,,CLR,0.04,VWS V13.01,2013-04-10 01:30:00,
2013-04-09 21:35:00,50.0,43.1,29.99,SSE,150,0.0,1.0,77,0.00,,CLR,0.04,VWS V13.01,2013-04-10 01:35:00,
2013-04-09 21:40:00,49.7,43.1,29.99,SSE,150,1.0,2.0,78,0.00,,CLR,0.04,VWS V13.01,2013-04-10 01:40:00,
2013-04-09 21:45:00,49.4,43.2,29.99,SSE,150,2.0,2.0,79,0.00,,CLR,0.04,VWS V13.01,2013-04-10 01:45:00,
2013-04-09 21:50:00,49.2,43.0,29.99,SE,136,0.0,2.0,79,0.00,,CLR,0.04,VWS V13.01,2013-04-10 01:50:00,
2013-04-09 21:55:00,49.0,42.8,29.99,SE,136,0.0,2.0,79,0.00,,CLR,0.04,VWS V13.01,2013-04-10 01:55:00,
2013-04-09 22:00:00,48.8,42.9,29.99,SE,136,0.0,2.0,80,0.00,,CLR,0.04,VWS V13.01,2013-04-10 02:00:00,
2013-04-09 22:05:00,48.7,42.8,29.99,West,269,0.0,1.0,80,0.00,,CLR,0.04,VWS V13.01,2013-04-10 02:05:00,
2013-04-09 22:10:00,48.5,43.0,29.99,South,175,2.0,2.0,81,0.00,,CLR,0.04,VWS V13.01,2013-04-10 02:10:00,
2013-04-09 22:16:00,48.5,43.0,29.99,South,175,0.0,2.0,81,0.00,,CLR,0.04,VWS V13.01,2013-04-10 02:16:00,
2013-04-09 22:21:00,48.5,43.3,29.99,East,80,0.0,2.0,82,0.00,,CLR,0.04,VWS V13.01,2013-04-10 02:21:00,
2013-04-09 22:26:00,48.4,42.8,29.99,East,90,0.0,3.0,81,0.00,,CLR,0.04,VWS V13.01,2013-04-10 02:26:00,
2013-04-09 22:31:00,48.4,43.2,30.00,WNW,287,0.0,3.0,82,0.00,,CLR,0.04,VWS V13.01,2013-04-10 02:31:00,
2013-04-09 22:36:00,48.4,42.8,30.00,WNW,287,0.0,1.0,81,0.00,,CLR,0.04,VWS V13.01,2013-04-10 02:36:00,
2013-04-09 22:41:00,48.4,42.8,30.00,WNW,287,0.0,1.0,81,0.00,,CLR,0.04,VWS V13.01,2013-04-10 02:41:00,
2013-04-09 22:46:00,48.4,42.8,29.99,WNW,287,0.0,1.0,81,0.00,,CLR,0.04,VWS V13.01,2013-04-10 02:46:00,
2013-04-09 22:51:00,48.3,42.8,29.99,WNW,287,0.0,1.0,81,0.00,,CLR,0.04,VWS V13.01,2013-04-10 02:51:00,
2013-04-09 22:57:00,48.3,43.1,29.99,WNW,287,0.0,1.0,82,0.00,,CLR,0.04,VWS V13.01,2013-04-10 02:57:00,
2013-04-09 23:02:00,48.3,42.8,29.97,WNW,287,0.0,0.0,81,0.00,,CLR,0.04,VWS V13.01,2013-04-10 03:02:00,
2013-04-09 23:07:00,48.3,42.8,29.97,WNW,287,0.0,1.0,81,0.00,,CLR,0.04,VWS V13.01,2013-04-10 03:07:00,
2013-04-09 23:12:00,48.2,42.7,29.97,WNW,287,0.0,1.0,81,0.00,,CLR,0.04,VWS V13.01,2013-04-10 03:12:00,
2013-04-09 23:17:00,48.2,43.0,29.97,WNW,287,0.0,1.0,82,0.00,,CLR,0.04,VWS V13.01,2013-04-10 03:17:00,
2013-04-09 23:22:00,48.2,43.0,29.97,WNW,287,0.0,1.0,82,0.00,,CLR,0.04,VWS V13.01,2013-04-10 03:22:00,
2013-04-09 23:27:00,48.1,42.9,29.98,WNW,287,0.0,1.0,82,0.00,,CLR,0.04,VWS V13.01,2013-04-10 03:27:00,
2013-04-09 23:32:00,48.0,42.8,29.97,WNW,287,0.0,0.0,82,0.00,,CLR,0.04,VWS V13.01,2013-04-10 03:32:00,
2013-04-09 23:37:00,47.9,42.7,29.95,WNW,287,2.0,2.0,82,0.00,,CLR,0.04,VWS V13.01,2013-04-10 03:37:00,
2013-04-09 23:42:00,47.9,42.7,29.94,WNW,287,0.0,2.0,82,0.00,,CLR,0.04,VWS V13.01,2013-04-10 03:42:00,
2013-04-09 23:47:00,47.8,42.6,29.93,WNW,287,0.0,2.0,82,0.00,,BKN100,0.04,VWS V13.01,2013-04-10 03:47:00,
2013-04-09 23:53:00,47.7,42.5,29.93,WNW,287,0.0,2.0,82,0.00,,BKN100,0.04,VWS V13.01,2013-04-10 03:53:00,
2013-04-09 23:58:00,47.5,42.3,29.94,WNW,287,0.0,2.0,82,0.00,,BKN100,0.04,VWS V13.01,2013-04-10 03:58:00,